sensor_id;sensor_type;location;lat;lon;timestamp;P1;durP1;ratioP1;P2;durP2;ratioP2
16832;SDS011;8533;48.426;10.868;2023-09-18T00:02:16;8.13;;;6.00;;
16832;SDS011;8533;48.426;10.868;2023-09-18T00:04:42;7.90;;;6.20;;
16832;SDS011;8533;48.426;10.868;2023-09-18T00:07:07;7.97;;;6.20;;
16832;SDS011;8533;48.426;10.868;2023-09-18T00:09:32;8.93;;;6.10;;
16832;SDS011;8533;48.426;10.868;2023-09-18T00:11:58;8.63;;;6.10;;
16832;SDS011;8533;48.426;10.868;2023-09-18T00:14:23;9.20;;;6.07;;
16832;SDS011;8533;48.426;10.868;2023-09-18T00:16:49;8.77;;;5.90;;
16832;SDS011;8533;48.426;10.868;2023-09-18T00:19:14;8.33;;;5.90;;
16832;SDS011;8533;48.426;10.868;2023-09-18T00:21:39;9.40;;;6.10;;
16832;SDS011;8533;48.426;10.868;2023-09-18T00:24:05;7.60;;;6.03;;
16832;SDS011;8533;48.426;10.868;2023-09-18T00:26:30;8.67;;;6.00;;
16832;SDS011;8533;48.426;10.868;2023-09-18T00:28:56;7.10;;;5.53;;
16832;SDS011;8533;48.426;10.868;2023-09-18T00:31:21;9.63;;;5.97;;
16832;SDS011;8533;48.426;10.868;2023-09-18T00:33:46;9.17;;;5.90;;
16832;SDS011;8533;48.426;10.868;2023-09-18T00:36:13;10.00;;;5.97;;
16832;SDS011;8533;48.426;10.868;2023-09-18T00:38:38;8.13;;;5.93;;
16832;SDS011;8533;48.426;10.868;2023-09-18T00:41:04;6.23;;;5.13;;
16832;SDS011;8533;48.426;10.868;2023-09-18T00:43:29;6.57;;;5.40;;
16832;SDS011;8533;48.426;10.868;2023-09-18T00:45:54;9.30;;;6.50;;
16832;SDS011;8533;48.426;10.868;2023-09-18T00:48:19;9.77;;;5.77;;
16832;SDS011;8533;48.426;10.868;2023-09-18T00:50:46;6.50;;;5.60;;
16832;SDS011;8533;48.426;10.868;2023-09-18T00:53:17;8.40;;;6.03;;
16832;SDS011;8533;48.426;10.868;2023-09-18T00:55:45;7.77;;;5.80;;
16832;SDS011;8533;48.426;10.868;2023-09-18T00:58:10;7.83;;;5.73;;
16832;SDS011;8533;48.426;10.868;2023-09-18T01:00:36;9.13;;;5.70;;
16832;SDS011;8533;48.426;10.868;2023-09-18T01:03:02;9.30;;;6.37;;
16832;SDS011;8533;48.426;10.868;2023-09-18T01:05:30;9.80;;;6.60;;
16832;SDS011;8533;48.426;10.868;2023-09-18T01:07:57;8.33;;;6.50;;
16832;SDS011;8533;48.426;10.868;2023-09-18T01:10:22;9.70;;;6.30;;
16832;SDS011;8533;48.426;10.868;2023-09-18T01:13:12;9.10;;;5.97;;
16832;SDS011;8533;48.426;10.868;2023-09-18T01:15:44;10.97;;;6.13;;
16832;SDS011;8533;48.426;10.868;2023-09-18T01:18:17;7.77;;;5.67;;
16832;SDS011;8533;48.426;10.868;2023-09-18T01:20:43;10.57;;;5.80;;
16832;SDS011;8533;48.426;10.868;2023-09-18T01:23:09;8.00;;;5.80;;
16832;SDS011;8533;48.426;10.868;2023-09-18T01:25:36;9.03;;;6.77;;
16832;SDS011;8533;48.426;10.868;2023-09-18T01:28:02;8.77;;;6.37;;
16832;SDS011;8533;48.426;10.868;2023-09-18T01:30:27;8.80;;;6.30;;
16832;SDS011;8533;48.426;10.868;2023-09-18T01:32:53;11.57;;;6.73;;
16832;SDS011;8533;48.426;10.868;2023-09-18T01:35:21;8.03;;;6.27;;
16832;SDS011;8533;48.426;10.868;2023-09-18T01:37:47;8.23;;;5.93;;
16832;SDS011;8533;48.426;10.868;2023-09-18T01:40:14;8.50;;;6.27;;
16832;SDS011;8533;48.426;10.868;2023-09-18T01:42:39;9.33;;;6.10;;
16832;SDS011;8533;48.426;10.868;2023-09-18T01:45:06;10.60;;;6.70;;
16832;SDS011;8533;48.426;10.868;2023-09-18T01:47:32;6.40;;;5.60;;
16832;SDS011;8533;48.426;10.868;2023-09-18T01:49:58;8.23;;;6.17;;
16832;SDS011;8533;48.426;10.868;2023-09-18T01:52:30;8.60;;;5.87;;
16832;SDS011;8533;48.426;10.868;2023-09-18T01:54:56;8.90;;;6.03;;
16832;SDS011;8533;48.426;10.868;2023-09-18T01:57:21;11.47;;;6.73;;
16832;SDS011;8533;48.426;10.868;2023-09-18T01:59:46;11.03;;;6.33;;
16832;SDS011;8533;48.426;10.868;2023-09-18T02:02:12;7.73;;;5.53;;
16832;SDS011;8533;48.426;10.868;2023-09-18T02:04:37;9.10;;;6.17;;
16832;SDS011;8533;48.426;10.868;2023-09-18T02:07:03;9.73;;;6.87;;
16832;SDS011;8533;48.426;10.868;2023-09-18T02:09:28;12.87;;;6.63;;
16832;SDS011;8533;48.426;10.868;2023-09-18T02:11:54;9.43;;;6.70;;
16832;SDS011;8533;48.426;10.868;2023-09-18T02:14:19;11.77;;;6.63;;
16832;SDS011;8533;48.426;10.868;2023-09-18T02:16:45;11.33;;;7.10;;
16832;SDS011;8533;48.426;10.868;2023-09-18T02:19:11;9.23;;;6.40;;
16832;SDS011;8533;48.426;10.868;2023-09-18T02:21:37;9.57;;;6.30;;
16832;SDS011;8533;48.426;10.868;2023-09-18T02:24:03;8.40;;;6.70;;
16832;SDS011;8533;48.426;10.868;2023-09-18T02:26:28;10.00;;;6.80;;
16832;SDS011;8533;48.426;10.868;2023-09-18T02:28:55;10.83;;;6.73;;
16832;SDS011;8533;48.426;10.868;2023-09-18T02:31:24;8.10;;;6.47;;
16832;SDS011;8533;48.426;10.868;2023-09-18T02:33:49;10.23;;;6.83;;
16832;SDS011;8533;48.426;10.868;2023-09-18T02:36:15;9.63;;;6.53;;
16832;SDS011;8533;48.426;10.868;2023-09-18T02:38:40;10.77;;;6.73;;
16832;SDS011;8533;48.426;10.868;2023-09-18T02:41:06;8.83;;;6.53;;
16832;SDS011;8533;48.426;10.868;2023-09-18T02:43:31;11.87;;;7.10;;
16832;SDS011;8533;48.426;10.868;2023-09-18T02:45:57;9.80;;;6.87;;
16832;SDS011;8533;48.426;10.868;2023-09-18T02:48:22;9.07;;;5.93;;
16832;SDS011;8533;48.426;10.868;2023-09-18T02:50:47;11.80;;;6.83;;
16832;SDS011;8533;48.426;10.868;2023-09-18T02:53:16;9.60;;;6.77;;
16832;SDS011;8533;48.426;10.868;2023-09-18T02:55:44;9.00;;;6.23;;
16832;SDS011;8533;48.426;10.868;2023-09-18T02:58:09;8.43;;;6.33;;
16832;SDS011;8533;48.426;10.868;2023-09-18T03:00:35;13.07;;;7.20;;
16832;SDS011;8533;48.426;10.868;2023-09-18T03:03:07;10.17;;;6.20;;
16832;SDS011;8533;48.426;10.868;2023-09-18T03:05:32;10.87;;;6.70;;
16832;SDS011;8533;48.426;10.868;2023-09-18T03:07:57;9.57;;;6.43;;
16832;SDS011;8533;48.426;10.868;2023-09-18T03:10:23;10.93;;;6.83;;
16832;SDS011;8533;48.426;10.868;2023-09-18T03:12:48;10.53;;;6.57;;
16832;SDS011;8533;48.426;10.868;2023-09-18T03:15:14;12.27;;;6.53;;
16832;SDS011;8533;48.426;10.868;2023-09-18T03:17:39;10.07;;;6.47;;
16832;SDS011;8533;48.426;10.868;2023-09-18T03:20:07;8.73;;;6.30;;
16832;SDS011;8533;48.426;10.868;2023-09-18T03:22:33;9.90;;;6.50;;
16832;SDS011;8533;48.426;10.868;2023-09-18T03:24:58;7.60;;;5.93;;
16832;SDS011;8533;48.426;10.868;2023-09-18T03:27:23;11.07;;;7.17;;
16832;SDS011;8533;48.426;10.868;2023-09-18T03:29:53;12.93;;;6.30;;
16832;SDS011;8533;48.426;10.868;2023-09-18T03:32:21;9.67;;;7.03;;
16832;SDS011;8533;48.426;10.868;2023-09-18T03:34:46;11.00;;;6.43;;
16832;SDS011;8533;48.426;10.868;2023-09-18T03:37:15;11.83;;;7.50;;
16832;SDS011;8533;48.426;10.868;2023-09-18T03:39:40;12.87;;;6.97;;
16832;SDS011;8533;48.426;10.868;2023-09-18T03:42:05;16.73;;;7.90;;
16832;SDS011;8533;48.426;10.868;2023-09-18T03:44:31;10.33;;;6.53;;
16832;SDS011;8533;48.426;10.868;2023-09-18T03:46:57;12.40;;;7.10;;
16832;SDS011;8533;48.426;10.868;2023-09-18T03:49:22;10.93;;;6.97;;
16832;SDS011;8533;48.426;10.868;2023-09-18T03:51:47;9.37;;;7.27;;
16832;SDS011;8533;48.426;10.868;2023-09-18T03:54:12;10.20;;;7.20;;
16832;SDS011;8533;48.426;10.868;2023-09-18T03:56:38;10.80;;;8.00;;
16832;SDS011;8533;48.426;10.868;2023-09-18T03:59:03;10.17;;;7.20;;
16832;SDS011;8533;48.426;10.868;2023-09-18T04:01:29;9.93;;;7.37;;
16832;SDS011;8533;48.426;10.868;2023-09-18T04:03:55;10.20;;;7.67;;
16832;SDS011;8533;48.426;10.868;2023-09-18T04:06:20;10.20;;;7.27;;
16832;SDS011;8533;48.426;10.868;2023-09-18T04:08:46;11.63;;;7.97;;
16832;SDS011;8533;48.426;10.868;2023-09-18T04:11:12;9.07;;;7.23;;
16832;SDS011;8533;48.426;10.868;2023-09-18T04:13:37;10.10;;;7.20;;
16832;SDS011;8533;48.426;10.868;2023-09-18T04:16:03;10.87;;;7.53;;
16832;SDS011;8533;48.426;10.868;2023-09-18T04:18:29;12.13;;;7.63;;
16832;SDS011;8533;48.426;10.868;2023-09-18T04:20:54;10.23;;;7.20;;
16832;SDS011;8533;48.426;10.868;2023-09-18T04:23:24;12.33;;;7.57;;
16832;SDS011;8533;48.426;10.868;2023-09-18T04:25:50;11.07;;;7.33;;
16832;SDS011;8533;48.426;10.868;2023-09-18T04:28:17;12.07;;;8.07;;
16832;SDS011;8533;48.426;10.868;2023-09-18T04:30:44;10.53;;;7.53;;
16832;SDS011;8533;48.426;10.868;2023-09-18T04:33:09;10.20;;;7.47;;
16832;SDS011;8533;48.426;10.868;2023-09-18T04:35:36;10.60;;;7.47;;
16832;SDS011;8533;48.426;10.868;2023-09-18T04:38:04;12.77;;;8.13;;
16832;SDS011;8533;48.426;10.868;2023-09-18T04:40:31;11.27;;;7.53;;
16832;SDS011;8533;48.426;10.868;2023-09-18T04:43:00;12.40;;;8.07;;
16832;SDS011;8533;48.426;10.868;2023-09-18T04:45:26;11.23;;;7.80;;
16832;SDS011;8533;48.426;10.868;2023-09-18T04:47:52;14.00;;;8.80;;
16832;SDS011;8533;48.426;10.868;2023-09-18T04:50:17;12.93;;;7.83;;
16832;SDS011;8533;48.426;10.868;2023-09-18T04:52:43;15.60;;;8.17;;
16832;SDS011;8533;48.426;10.868;2023-09-18T04:55:09;12.67;;;8.63;;
16832;SDS011;8533;48.426;10.868;2023-09-18T04:57:35;11.77;;;7.40;;
16832;SDS011;8533;48.426;10.868;2023-09-18T05:00:01;10.87;;;6.90;;
16832;SDS011;8533;48.426;10.868;2023-09-18T05:02:27;12.43;;;7.50;;
16832;SDS011;8533;48.426;10.868;2023-09-18T05:04:52;9.10;;;6.63;;
16832;SDS011;8533;48.426;10.868;2023-09-18T05:07:20;16.23;;;8.10;;
16832;SDS011;8533;48.426;10.868;2023-09-18T05:09:46;11.37;;;7.00;;
16832;SDS011;8533;48.426;10.868;2023-09-18T05:12:11;11.00;;;6.80;;
16832;SDS011;8533;48.426;10.868;2023-09-18T05:14:42;11.97;;;7.07;;
16832;SDS011;8533;48.426;10.868;2023-09-18T05:17:14;12.33;;;6.60;;
16832;SDS011;8533;48.426;10.868;2023-09-18T05:19:40;7.97;;;6.20;;
16832;SDS011;8533;48.426;10.868;2023-09-18T05:22:05;9.57;;;6.53;;
16832;SDS011;8533;48.426;10.868;2023-09-18T05:24:31;9.53;;;6.17;;
16832;SDS011;8533;48.426;10.868;2023-09-18T05:26:57;9.07;;;5.97;;
16832;SDS011;8533;48.426;10.868;2023-09-18T05:29:22;7.77;;;5.63;;
16832;SDS011;8533;48.426;10.868;2023-09-18T05:31:47;8.73;;;6.60;;
16832;SDS011;8533;48.426;10.868;2023-09-18T05:34:13;7.63;;;5.63;;
16832;SDS011;8533;48.426;10.868;2023-09-18T05:36:38;9.60;;;6.23;;
16832;SDS011;8533;48.426;10.868;2023-09-18T05:39:05;9.23;;;6.70;;
16832;SDS011;8533;48.426;10.868;2023-09-18T05:41:34;11.63;;;6.73;;
16832;SDS011;8533;48.426;10.868;2023-09-18T05:44:00;10.10;;;6.20;;
16832;SDS011;8533;48.426;10.868;2023-09-18T05:46:28;8.50;;;6.00;;
16832;SDS011;8533;48.426;10.868;2023-09-18T05:48:54;9.23;;;6.90;;
16832;SDS011;8533;48.426;10.868;2023-09-18T05:51:21;11.87;;;6.50;;
16832;SDS011;8533;48.426;10.868;2023-09-18T05:53:47;16.13;;;7.50;;
16832;SDS011;8533;48.426;10.868;2023-09-18T05:56:12;16.33;;;7.60;;
16832;SDS011;8533;48.426;10.868;2023-09-18T05:58:39;16.60;;;6.93;;
16832;SDS011;8533;48.426;10.868;2023-09-18T06:01:04;13.43;;;6.57;;
16832;SDS011;8533;48.426;10.868;2023-09-18T06:03:31;13.57;;;7.73;;
16832;SDS011;8533;48.426;10.868;2023-09-18T06:06:00;12.27;;;6.57;;
16832;SDS011;8533;48.426;10.868;2023-09-18T06:08:26;15.40;;;8.47;;
16832;SDS011;8533;48.426;10.868;2023-09-18T06:10:52;11.60;;;7.27;;
16832;SDS011;8533;48.426;10.868;2023-09-18T06:13:17;13.57;;;6.93;;
16832;SDS011;8533;48.426;10.868;2023-09-18T06:15:42;12.80;;;7.60;;
16832;SDS011;8533;48.426;10.868;2023-09-18T06:18:08;12.40;;;7.20;;
16832;SDS011;8533;48.426;10.868;2023-09-18T06:20:33;13.10;;;7.80;;
16832;SDS011;8533;48.426;10.868;2023-09-18T06:22:58;12.37;;;8.03;;
16832;SDS011;8533;48.426;10.868;2023-09-18T06:25:24;16.17;;;8.27;;
16832;SDS011;8533;48.426;10.868;2023-09-18T06:27:49;14.60;;;8.07;;
16832;SDS011;8533;48.426;10.868;2023-09-18T06:30:14;16.37;;;8.27;;
16832;SDS011;8533;48.426;10.868;2023-09-18T06:32:40;13.53;;;8.83;;
16832;SDS011;8533;48.426;10.868;2023-09-18T06:35:05;11.83;;;8.13;;
16832;SDS011;8533;48.426;10.868;2023-09-18T06:37:31;14.10;;;8.23;;
16832;SDS011;8533;48.426;10.868;2023-09-18T06:39:56;16.97;;;8.37;;
16832;SDS011;8533;48.426;10.868;2023-09-18T06:42:22;11.70;;;8.30;;
16832;SDS011;8533;48.426;10.868;2023-09-18T06:44:47;12.00;;;8.10;;
16832;SDS011;8533;48.426;10.868;2023-09-18T06:47:13;19.70;;;8.77;;
16832;SDS011;8533;48.426;10.868;2023-09-18T06:49:39;14.27;;;9.37;;
16832;SDS011;8533;48.426;10.868;2023-09-18T06:52:06;14.27;;;7.57;;
16832;SDS011;8533;48.426;10.868;2023-09-18T06:54:32;13.90;;;7.90;;
16832;SDS011;8533;48.426;10.868;2023-09-18T06:56:57;13.17;;;7.03;;
16832;SDS011;8533;48.426;10.868;2023-09-18T06:59:23;9.87;;;7.37;;
16832;SDS011;8533;48.426;10.868;2023-09-18T07:01:48;11.07;;;6.53;;
16832;SDS011;8533;48.426;10.868;2023-09-18T07:04:13;13.33;;;6.83;;
16832;SDS011;8533;48.426;10.868;2023-09-18T07:06:38;10.27;;;6.40;;
16832;SDS011;8533;48.426;10.868;2023-09-18T07:09:04;11.57;;;6.70;;
16832;SDS011;8533;48.426;10.868;2023-09-18T07:11:31;14.70;;;7.63;;
16832;SDS011;8533;48.426;10.868;2023-09-18T07:13:56;10.23;;;6.47;;
16832;SDS011;8533;48.426;10.868;2023-09-18T07:16:22;10.40;;;6.67;;
16832;SDS011;8533;48.426;10.868;2023-09-18T07:18:47;7.97;;;6.03;;
16832;SDS011;8533;48.426;10.868;2023-09-18T07:21:12;7.87;;;6.03;;
16832;SDS011;8533;48.426;10.868;2023-09-18T07:23:39;9.63;;;6.10;;
16832;SDS011;8533;48.426;10.868;2023-09-18T07:26:05;8.27;;;5.50;;
16832;SDS011;8533;48.426;10.868;2023-09-18T07:28:31;10.77;;;6.23;;
16832;SDS011;8533;48.426;10.868;2023-09-18T07:30:56;10.40;;;6.97;;
16832;SDS011;8533;48.426;10.868;2023-09-18T07:33:22;13.73;;;9.10;;
16832;SDS011;8533;48.426;10.868;2023-09-18T07:35:47;8.37;;;5.80;;
16832;SDS011;8533;48.426;10.868;2023-09-18T07:38:13;10.03;;;6.57;;
16832;SDS011;8533;48.426;10.868;2023-09-18T07:40:39;10.17;;;6.00;;
16832;SDS011;8533;48.426;10.868;2023-09-18T07:43:04;9.10;;;6.60;;
16832;SDS011;8533;48.426;10.868;2023-09-18T07:45:30;9.40;;;6.43;;
16832;SDS011;8533;48.426;10.868;2023-09-18T07:47:55;10.50;;;6.43;;
16832;SDS011;8533;48.426;10.868;2023-09-18T07:50:20;8.50;;;5.83;;
16832;SDS011;8533;48.426;10.868;2023-09-18T07:52:45;9.43;;;6.00;;
16832;SDS011;8533;48.426;10.868;2023-09-18T07:55:11;8.47;;;5.90;;
16832;SDS011;8533;48.426;10.868;2023-09-18T07:57:37;10.53;;;5.97;;
16832;SDS011;8533;48.426;10.868;2023-09-18T08:00:02;9.77;;;6.50;;
16832;SDS011;8533;48.426;10.868;2023-09-18T08:02:37;8.90;;;6.67;;
16832;SDS011;8533;48.426;10.868;2023-09-18T08:05:05;8.37;;;5.77;;
16832;SDS011;8533;48.426;10.868;2023-09-18T08:07:36;8.57;;;5.93;;
16832;SDS011;8533;48.426;10.868;2023-09-18T08:10:02;10.40;;;5.90;;
16832;SDS011;8533;48.426;10.868;2023-09-18T08:12:31;8.07;;;5.47;;
16832;SDS011;8533;48.426;10.868;2023-09-18T08:14:57;7.07;;;5.27;;
16832;SDS011;8533;48.426;10.868;2023-09-18T08:17:23;9.23;;;5.40;;
16832;SDS011;8533;48.426;10.868;2023-09-18T08:19:50;8.30;;;4.93;;
16832;SDS011;8533;48.426;10.868;2023-09-18T08:22:17;8.43;;;5.80;;
16832;SDS011;8533;48.426;10.868;2023-09-18T08:24:44;7.57;;;5.23;;
16832;SDS011;8533;48.426;10.868;2023-09-18T08:27:10;10.13;;;4.83;;
16832;SDS011;8533;48.426;10.868;2023-09-18T08:29:37;7.20;;;5.67;;
16832;SDS011;8533;48.426;10.868;2023-09-18T08:32:02;7.10;;;4.87;;
16832;SDS011;8533;48.426;10.868;2023-09-18T08:34:27;8.97;;;5.50;;
16832;SDS011;8533;48.426;10.868;2023-09-18T08:36:53;7.17;;;4.90;;
16832;SDS011;8533;48.426;10.868;2023-09-18T08:39:18;6.93;;;5.30;;
16832;SDS011;8533;48.426;10.868;2023-09-18T08:41:43;6.40;;;5.13;;
16832;SDS011;8533;48.426;10.868;2023-09-18T08:44:13;7.40;;;4.80;;
16832;SDS011;8533;48.426;10.868;2023-09-18T08:46:39;6.47;;;4.27;;
16832;SDS011;8533;48.426;10.868;2023-09-18T08:49:05;7.27;;;4.60;;
16832;SDS011;8533;48.426;10.868;2023-09-18T08:51:32;6.33;;;4.23;;
16832;SDS011;8533;48.426;10.868;2023-09-18T08:53:58;8.87;;;4.10;;
16832;SDS011;8533;48.426;10.868;2023-09-18T08:56:24;7.87;;;4.17;;
16832;SDS011;8533;48.426;10.868;2023-09-18T08:58:50;5.73;;;3.90;;
16832;SDS011;8533;48.426;10.868;2023-09-18T09:01:15;7.50;;;4.00;;
16832;SDS011;8533;48.426;10.868;2023-09-18T09:03:41;7.77;;;4.37;;
16832;SDS011;8533;48.426;10.868;2023-09-18T09:06:11;6.93;;;4.10;;
16832;SDS011;8533;48.426;10.868;2023-09-18T09:08:37;5.57;;;3.50;;
16832;SDS011;8533;48.426;10.868;2023-09-18T09:11:05;6.70;;;3.63;;
16832;SDS011;8533;48.426;10.868;2023-09-18T09:13:31;5.57;;;3.80;;
16832;SDS011;8533;48.426;10.868;2023-09-18T09:15:57;7.27;;;4.10;;
16832;SDS011;8533;48.426;10.868;2023-09-18T09:18:23;7.10;;;3.53;;
16832;SDS011;8533;48.426;10.868;2023-09-18T09:23:23;5.37;;;3.10;;
16832;SDS011;8533;48.426;10.868;2023-09-18T09:25:49;6.83;;;3.37;;
16832;SDS011;8533;48.426;10.868;2023-09-18T09:28:14;9.27;;;3.33;;
16832;SDS011;8533;48.426;10.868;2023-09-18T09:30:41;8.03;;;3.07;;
16832;SDS011;8533;48.426;10.868;2023-09-18T09:33:06;6.00;;;3.23;;
16832;SDS011;8533;48.426;10.868;2023-09-18T09:35:33;5.30;;;3.00;;
16832;SDS011;8533;48.426;10.868;2023-09-18T09:38:07;3.97;;;2.90;;
16832;SDS011;8533;48.426;10.868;2023-09-18T09:40:39;6.33;;;3.23;;
16832;SDS011;8533;48.426;10.868;2023-09-18T09:43:07;7.37;;;3.37;;
16832;SDS011;8533;48.426;10.868;2023-09-18T09:45:33;7.63;;;3.23;;
16832;SDS011;8533;48.426;10.868;2023-09-18T09:48:05;5.27;;;3.30;;
16832;SDS011;8533;48.426;10.868;2023-09-18T09:50:31;4.97;;;3.37;;
16832;SDS011;8533;48.426;10.868;2023-09-18T09:52:58;5.70;;;2.73;;
16832;SDS011;8533;48.426;10.868;2023-09-18T09:55:31;6.43;;;3.27;;
16832;SDS011;8533;48.426;10.868;2023-09-18T09:58:03;3.57;;;2.40;;
16832;SDS011;8533;48.426;10.868;2023-09-18T10:00:31;3.67;;;2.67;;
16832;SDS011;8533;48.426;10.868;2023-09-18T10:03:11;7.93;;;2.23;;
16832;SDS011;8533;48.426;10.868;2023-09-18T10:05:40;9.87;;;2.97;;
16832;SDS011;8533;48.426;10.868;2023-09-18T10:08:08;6.03;;;2.60;;
16832;SDS011;8533;48.426;10.868;2023-09-18T10:10:38;5.47;;;2.37;;
16832;SDS011;8533;48.426;10.868;2023-09-18T10:13:26;8.03;;;3.50;;
16832;SDS011;8533;48.426;10.868;2023-09-18T10:15:56;6.67;;;2.33;;
16832;SDS011;8533;48.426;10.868;2023-09-18T10:18:34;11.73;;;2.83;;
16832;SDS011;8533;48.426;10.868;2023-09-18T10:21:13;8.87;;;2.50;;
16832;SDS011;8533;48.426;10.868;2023-09-18T10:26:32;4.53;;;2.30;;
16832;SDS011;8533;48.426;10.868;2023-09-18T10:29:04;7.37;;;2.30;;
16832;SDS011;8533;48.426;10.868;2023-09-18T10:31:33;5.90;;;2.50;;
16832;SDS011;8533;48.426;10.868;2023-09-18T10:34:00;8.53;;;2.50;;
16832;SDS011;8533;48.426;10.868;2023-09-18T10:36:27;4.90;;;2.40;;
16832;SDS011;8533;48.426;10.868;2023-09-18T10:38:54;5.20;;;2.50;;
16832;SDS011;8533;48.426;10.868;2023-09-18T10:41:21;6.07;;;2.20;;
16832;SDS011;8533;48.426;10.868;2023-09-18T10:43:47;8.93;;;2.90;;
16832;SDS011;8533;48.426;10.868;2023-09-18T10:46:18;10.50;;;2.80;;
16832;SDS011;8533;48.426;10.868;2023-09-18T10:48:43;10.07;;;3.00;;
16832;SDS011;8533;48.426;10.868;2023-09-18T10:51:11;5.90;;;2.57;;
16832;SDS011;8533;48.426;10.868;2023-09-18T10:53:38;5.93;;;2.50;;
16832;SDS011;8533;48.426;10.868;2023-09-18T10:56:04;5.43;;;2.90;;
16832;SDS011;8533;48.426;10.868;2023-09-18T10:58:30;9.30;;;2.57;;
16832;SDS011;8533;48.426;10.868;2023-09-18T11:00:56;4.83;;;2.50;;
16832;SDS011;8533;48.426;10.868;2023-09-18T11:03:22;3.70;;;2.13;;
16832;SDS011;8533;48.426;10.868;2023-09-18T11:05:48;7.10;;;2.67;;
16832;SDS011;8533;48.426;10.868;2023-09-18T11:10:57;10.90;;;2.37;;
16832;SDS011;8533;48.426;10.868;2023-09-18T11:13:56;5.63;;;2.10;;
16832;SDS011;8533;48.426;10.868;2023-09-18T11:21:25;10.77;;;2.83;;
16832;SDS011;8533;48.426;10.868;2023-09-18T11:24:01;6.07;;;1.73;;
16832;SDS011;8533;48.426;10.868;2023-09-18T11:26:32;7.30;;;2.27;;
16832;SDS011;8533;48.426;10.868;2023-09-18T11:34:14;5.00;;;2.00;;
16832;SDS011;8533;48.426;10.868;2023-09-18T11:36:40;6.50;;;2.00;;
16832;SDS011;8533;48.426;10.868;2023-09-18T11:39:06;4.13;;;2.17;;
16832;SDS011;8533;48.426;10.868;2023-09-18T11:41:34;7.33;;;3.00;;
16832;SDS011;8533;48.426;10.868;2023-09-18T11:46:31;4.63;;;2.60;;
16832;SDS011;8533;48.426;10.868;2023-09-18T11:48:58;6.77;;;2.47;;
16832;SDS011;8533;48.426;10.868;2023-09-18T11:51:24;9.53;;;1.93;;
16832;SDS011;8533;48.426;10.868;2023-09-18T11:53:54;4.47;;;2.30;;
16832;SDS011;8533;48.426;10.868;2023-09-18T11:56:21;9.10;;;2.80;;
16832;SDS011;8533;48.426;10.868;2023-09-18T11:58:47;7.60;;;2.57;;
16832;SDS011;8533;48.426;10.868;2023-09-18T12:01:13;7.47;;;2.57;;
16832;SDS011;8533;48.426;10.868;2023-09-18T12:03:40;6.87;;;2.40;;
16832;SDS011;8533;48.426;10.868;2023-09-18T12:06:06;4.67;;;2.30;;
16832;SDS011;8533;48.426;10.868;2023-09-18T12:08:34;6.20;;;2.57;;
16832;SDS011;8533;48.426;10.868;2023-09-18T12:11:01;6.93;;;2.00;;
16832;SDS011;8533;48.426;10.868;2023-09-18T12:13:30;4.53;;;2.40;;
16832;SDS011;8533;48.426;10.868;2023-09-18T12:15:59;4.03;;;2.10;;
16832;SDS011;8533;48.426;10.868;2023-09-18T12:18:34;6.03;;;2.20;;
16832;SDS011;8533;48.426;10.868;2023-09-18T12:21:01;10.53;;;2.33;;
16832;SDS011;8533;48.426;10.868;2023-09-18T12:23:29;11.20;;;3.00;;
16832;SDS011;8533;48.426;10.868;2023-09-18T12:26:02;5.60;;;2.60;;
16832;SDS011;8533;48.426;10.868;2023-09-18T12:28:28;5.80;;;2.30;;
16832;SDS011;8533;48.426;10.868;2023-09-18T12:30:54;5.37;;;2.40;;
16832;SDS011;8533;48.426;10.868;2023-09-18T12:33:21;8.70;;;2.37;;
16832;SDS011;8533;48.426;10.868;2023-09-18T12:35:47;5.00;;;2.53;;
16832;SDS011;8533;48.426;10.868;2023-09-18T12:38:18;5.93;;;2.60;;
16832;SDS011;8533;48.426;10.868;2023-09-18T12:40:51;5.77;;;2.30;;
16832;SDS011;8533;48.426;10.868;2023-09-18T12:43:18;7.10;;;2.27;;
16832;SDS011;8533;48.426;10.868;2023-09-18T12:45:43;7.97;;;2.57;;
16832;SDS011;8533;48.426;10.868;2023-09-18T12:48:11;6.70;;;2.37;;
16832;SDS011;8533;48.426;10.868;2023-09-18T12:50:38;5.43;;;2.60;;
16832;SDS011;8533;48.426;10.868;2023-09-18T12:53:13;6.77;;;2.40;;
16832;SDS011;8533;48.426;10.868;2023-09-18T12:55:41;3.90;;;2.80;;
16832;SDS011;8533;48.426;10.868;2023-09-18T12:58:10;3.73;;;2.60;;
16832;SDS011;8533;48.426;10.868;2023-09-18T13:00:36;5.93;;;2.87;;
16832;SDS011;8533;48.426;10.868;2023-09-18T13:03:02;5.00;;;2.87;;
16832;SDS011;8533;48.426;10.868;2023-09-18T13:05:29;6.03;;;3.20;;
16832;SDS011;8533;48.426;10.868;2023-09-18T13:08:00;5.37;;;2.70;;
16832;SDS011;8533;48.426;10.868;2023-09-18T13:10:27;2.60;;;2.33;;
16832;SDS011;8533;48.426;10.868;2023-09-18T13:12:53;8.10;;;2.53;;
16832;SDS011;8533;48.426;10.868;2023-09-18T13:15:29;5.83;;;2.27;;
16832;SDS011;8533;48.426;10.868;2023-09-18T13:17:56;5.67;;;2.10;;
16832;SDS011;8533;48.426;10.868;2023-09-18T13:20:27;4.23;;;2.60;;
16832;SDS011;8533;48.426;10.868;2023-09-18T13:22:54;5.20;;;2.10;;
16832;SDS011;8533;48.426;10.868;2023-09-18T13:25:21;4.20;;;1.90;;
16832;SDS011;8533;48.426;10.868;2023-09-18T13:27:50;3.00;;;2.00;;
16832;SDS011;8533;48.426;10.868;2023-09-18T13:30:18;5.63;;;2.07;;
16832;SDS011;8533;48.426;10.868;2023-09-18T13:32:45;5.23;;;2.10;;
16832;SDS011;8533;48.426;10.868;2023-09-18T13:35:15;5.53;;;2.10;;
16832;SDS011;8533;48.426;10.868;2023-09-18T13:37:41;2.37;;;2.07;;
16832;SDS011;8533;48.426;10.868;2023-09-18T13:40:07;4.87;;;2.30;;
16832;SDS011;8533;48.426;10.868;2023-09-18T13:42:33;6.20;;;2.27;;
16832;SDS011;8533;48.426;10.868;2023-09-18T13:44:59;4.33;;;2.33;;
16832;SDS011;8533;48.426;10.868;2023-09-18T13:47:25;2.67;;;1.90;;
16832;SDS011;8533;48.426;10.868;2023-09-18T13:49:54;5.13;;;2.27;;
16832;SDS011;8533;48.426;10.868;2023-09-18T13:52:22;2.47;;;1.70;;
16832;SDS011;8533;48.426;10.868;2023-09-18T13:54:48;2.43;;;1.90;;
16832;SDS011;8533;48.426;10.868;2023-09-18T13:57:16;6.27;;;2.03;;
16832;SDS011;8533;48.426;10.868;2023-09-18T13:59:43;3.03;;;2.20;;
16832;SDS011;8533;48.426;10.868;2023-09-18T14:02:09;3.33;;;1.73;;
16832;SDS011;8533;48.426;10.868;2023-09-18T14:04:36;2.87;;;1.80;;
16832;SDS011;8533;48.426;10.868;2023-09-18T14:07:01;2.60;;;1.70;;
16832;SDS011;8533;48.426;10.868;2023-09-18T14:09:27;2.40;;;2.00;;
16832;SDS011;8533;48.426;10.868;2023-09-18T14:11:53;3.90;;;2.23;;
16832;SDS011;8533;48.426;10.868;2023-09-18T14:14:19;4.53;;;1.93;;
16832;SDS011;8533;48.426;10.868;2023-09-18T14:16:44;2.40;;;1.90;;
16832;SDS011;8533;48.426;10.868;2023-09-18T14:19:09;2.43;;;2.00;;
16832;SDS011;8533;48.426;10.868;2023-09-18T14:21:36;2.27;;;2.07;;
16832;SDS011;8533;48.426;10.868;2023-09-18T14:24:01;2.47;;;1.90;;
16832;SDS011;8533;48.426;10.868;2023-09-18T14:26:27;3.83;;;1.87;;
16832;SDS011;8533;48.426;10.868;2023-09-18T14:28:52;2.63;;;1.67;;
16832;SDS011;8533;48.426;10.868;2023-09-18T14:31:19;2.37;;;1.80;;
16832;SDS011;8533;48.426;10.868;2023-09-18T14:33:44;2.67;;;1.67;;
16832;SDS011;8533;48.426;10.868;2023-09-18T14:36:09;3.00;;;1.80;;
16832;SDS011;8533;48.426;10.868;2023-09-18T14:38:35;3.13;;;2.00;;
16832;SDS011;8533;48.426;10.868;2023-09-18T14:41:00;4.23;;;1.90;;
16832;SDS011;8533;48.426;10.868;2023-09-18T14:43:27;3.90;;;1.87;;
16832;SDS011;8533;48.426;10.868;2023-09-18T14:45:53;4.93;;;2.03;;
16832;SDS011;8533;48.426;10.868;2023-09-18T14:48:21;1.73;;;1.50;;
16832;SDS011;8533;48.426;10.868;2023-09-18T14:50:52;3.43;;;2.00;;
16832;SDS011;8533;48.426;10.868;2023-09-18T14:53:18;2.43;;;1.67;;
16832;SDS011;8533;48.426;10.868;2023-09-18T14:55:43;2.43;;;1.70;;
16832;SDS011;8533;48.426;10.868;2023-09-18T14:58:09;3.43;;;1.87;;
16832;SDS011;8533;48.426;10.868;2023-09-18T15:00:34;3.17;;;1.77;;
16832;SDS011;8533;48.426;10.868;2023-09-18T15:03:00;3.67;;;2.43;;